sensor_id;sensor_type;location;lat;lon;timestamp;pressure;altitude;pressure_sealevel;temperature;humidity
57290;BME280;43523;53.022;-1.178;2022-11-15T00:00:08;99510.83;;;5.19;100.00
57290;BME280;43523;53.022;-1.178;2022-11-15T00:01:16;99507.87;;;5.10;100.00
57290;BME280;43523;53.022;-1.178;2022-11-15T00:02:20;99508.77;;;5.67;100.00
57290;BME280;43523;53.022;-1.178;2022-11-15T00:03:23;99506.06;;;5.99;100.00
57290;BME280;43523;53.022;-1.178;2022-11-15T00:04:26;99505.58;;;6.15;100.00
57290;BME280;43523;53.022;-1.178;2022-11-15T00:05:28;99503.89;;;6.02;100.00
57290;BME280;43523;53.022;-1.178;2022-11-15T00:06:31;99500.64;;;6.42;100.00
57290;BME280;43523;53.022;-1.178;2022-11-15T00:07:33;99499.79;;;5.83;100.00
57290;BME280;43523;53.022;-1.178;2022-11-15T00:08:37;99496.43;;;5.67;100.00
57290;BME280;43523;53.022;-1.178;2022-11-15T00:09:39;99495.54;;;6.26;100.00
57290;BME280;43523;53.022;-1.178;2022-11-15T00:10:42;99494.95;;;6.03;100.00
57290;BME280;43523;53.022;-1.178;2022-11-15T00:11:44;99496.53;;;5.63;100.00
57290;BME280;43523;53.022;-1.178;2022-11-15T00:12:46;99497.16;;;5.38;100.00
57290;BME280;43523;53.022;-1.178;2022-11-15T00:13:49;99496.47;;;5.14;100.00
57290;BME280;43523;53.022;-1.178;2022-11-15T00:14:51;99497.40;;;5.51;100.00
57290;BME280;43523;53.022;-1.178;2022-11-15T00:15:57;99494.22;;;5.45;100.00
57290;BME280;43523;53.022;-1.178;2022-11-15T00:16:59;99494.91;;;4.92;100.00
57290;BME280;43523;53.022;-1.178;2022-11-15T00:18:02;99492.04;;;4.85;100.00
57290;BME280;43523;53.022;-1.178;2022-11-15T00:19:09;99490.78;;;5.28;100.00
57290;BME280;43523;53.022;-1.178;2022-11-15T00:20:12;99488.00;;;4.99;100.00
57290;BME280;43523;53.022;-1.178;2022-11-15T00:21:15;99485.93;;;5.08;100.00
57290;BME280;43523;53.022;-1.178;2022-11-15T00:22:18;99482.80;;;5.45;100.00
57290;BME280;43523;53.022;-1.178;2022-11-15T00:23:20;99484.78;;;5.10;100.00
57290;BME280;43523;53.022;-1.178;2022-11-15T00:24:22;99484.03;;;5.25;100.00
57290;BME280;43523;53.022;-1.178;2022-11-15T00:25:25;99482.66;;;5.07;100.00
57290;BME280;43523;53.022;-1.178;2022-11-15T00:26:27;99487.07;;;5.28;100.00
57290;BME280;43523;53.022;-1.178;2022-11-15T00:27:30;99485.63;;;5.36;100.00
57290;BME280;43523;53.022;-1.178;2022-11-15T00:28:32;99483.35;;;5.36;100.00
57290;BME280;43523;53.022;-1.178;2022-11-15T00:29:35;99485.46;;;6.10;100.00
57290;BME280;43523;53.022;-1.178;2022-11-15T00:30:37;99487.00;;;5.45;100.00
57290;BME280;43523;53.022;-1.178;2022-11-15T00:31:39;99487.92;;;5.26;100.00
57290;BME280;43523;53.022;-1.178;2022-11-15T00:32:42;99488.39;;;5.02;100.00
57290;BME280;43523;53.022;-1.178;2022-11-15T00:33:44;99484.80;;;5.30;100.00
57290;BME280;43523;53.022;-1.178;2022-11-15T00:34:47;99481.92;;;5.36;100.00
57290;BME280;43523;53.022;-1.178;2022-11-15T00:35:49;99481.26;;;5.70;100.00
57290;BME280;43523;53.022;-1.178;2022-11-15T00:36:51;99480.15;;;4.62;100.00
57290;BME280;43523;53.022;-1.178;2022-11-15T00:37:54;99477.25;;;4.71;100.00
57290;BME280;43523;53.022;-1.178;2022-11-15T00:38:56;99475.58;;;5.00;100.00
57290;BME280;43523;53.022;-1.178;2022-11-15T00:39:59;99475.09;;;5.19;100.00
57290;BME280;43523;53.022;-1.178;2022-11-15T00:41:03;99471.37;;;5.79;100.00
57290;BME280;43523;53.022;-1.178;2022-11-15T00:42:06;99468.82;;;5.71;100.00
57290;BME280;43523;53.022;-1.178;2022-11-15T00:43:08;99469.67;;;5.94;100.00
57290;BME280;43523;53.022;-1.178;2022-11-15T00:44:10;99465.68;;;6.40;100.00
57290;BME280;43523;53.022;-1.178;2022-11-15T00:45:12;99461.12;;;6.35;100.00
57290;BME280;43523;53.022;-1.178;2022-11-15T00:46:15;99459.03;;;6.39;100.00
57290;BME280;43523;53.022;-1.178;2022-11-15T00:47:17;99458.81;;;6.80;100.00
57290;BME280;43523;53.022;-1.178;2022-11-15T00:48:20;99456.19;;;6.29;100.00
57290;BME280;43523;53.022;-1.178;2022-11-15T00:49:22;99455.37;;;6.43;100.00
57290;BME280;43523;53.022;-1.178;2022-11-15T00:50:24;99456.79;;;6.61;100.00
57290;BME280;43523;53.022;-1.178;2022-11-15T00:51:27;99453.75;;;6.35;100.00
57290;BME280;43523;53.022;-1.178;2022-11-15T00:52:29;99453.21;;;6.60;100.00
57290;BME280;43523;53.022;-1.178;2022-11-15T00:53:32;99452.27;;;6.39;100.00
57290;BME280;43523;53.022;-1.178;2022-11-15T00:54:34;99448.67;;;6.49;100.00
57290;BME280;43523;53.022;-1.178;2022-11-15T00:55:37;99447.36;;;6.55;100.00
57290;BME280;43523;53.022;-1.178;2022-11-15T00:56:39;99447.94;;;6.63;100.00
57290;BME280;43523;53.022;-1.178;2022-11-15T00:57:41;99445.53;;;6.57;100.00
57290;BME280;43523;53.022;-1.178;2022-11-15T00:58:44;99439.10;;;6.84;100.00
57290;BME280;43523;53.022;-1.178;2022-11-15T00:59:46;99434.86;;;6.75;100.00
57290;BME280;43523;53.022;-1.178;2022-11-15T01:00:49;99433.01;;;6.63;100.00
57290;BME280;43523;53.022;-1.178;2022-11-15T01:01:51;99434.02;;;6.83;100.00
57290;BME280;43523;53.022;-1.178;2022-11-15T01:02:53;99427.91;;;6.74;100.00
57290;BME280;43523;53.022;-1.178;2022-11-15T01:03:56;99422.93;;;7.11;100.00
57290;BME280;43523;53.022;-1.178;2022-11-15T01:04:59;99420.07;;;7.23;100.00
57290;BME280;43523;53.022;-1.178;2022-11-15T01:06:02;99419.08;;;7.35;100.00
57290;BME280;43523;53.022;-1.178;2022-11-15T01:07:04;99419.24;;;7.41;100.00
57290;BME280;43523;53.022;-1.178;2022-11-15T01:08:10;99415.32;;;7.37;100.00
57290;BME280;43523;53.022;-1.178;2022-11-15T01:09:14;99414.32;;;7.32;100.00
57290;BME280;43523;53.022;-1.178;2022-11-15T01:10:16;99412.47;;;7.17;100.00
57290;BME280;43523;53.022;-1.178;2022-11-15T01:11:19;99411.64;;;6.91;100.00
57290;BME280;43523;53.022;-1.178;2022-11-15T01:12:21;99413.32;;;6.80;100.00
57290;BME280;43523;53.022;-1.178;2022-11-15T01:13:23;99413.08;;;7.27;100.00
57290;BME280;43523;53.022;-1.178;2022-11-15T01:14:26;99411.99;;;7.10;100.00
57290;BME280;43523;53.022;-1.178;2022-11-15T01:15:29;99410.38;;;7.21;100.00
57290;BME280;43523;53.022;-1.178;2022-11-15T01:16:31;99407.91;;;7.18;100.00
57290;BME280;43523;53.022;-1.178;2022-11-15T01:17:34;99404.79;;;6.80;100.00
57290;BME280;43523;53.022;-1.178;2022-11-15T01:18:37;99404.63;;;7.07;100.00
57290;BME280;43523;53.022;-1.178;2022-11-15T01:19:39;99405.94;;;7.05;100.00
57290;BME280;43523;53.022;-1.178;2022-11-15T01:20:42;99404.40;;;7.06;100.00
57290;BME280;43523;53.022;-1.178;2022-11-15T01:21:44;99402.01;;;6.80;100.00
57290;BME280;43523;53.022;-1.178;2022-11-15T01:22:46;99401.61;;;6.73;100.00
57290;BME280;43523;53.022;-1.178;2022-11-15T01:23:52;99397.90;;;6.71;100.00
57290;BME280;43523;53.022;-1.178;2022-11-15T01:24:55;99398.56;;;6.58;100.00
57290;BME280;43523;53.022;-1.178;2022-11-15T01:25:59;99392.58;;;6.35;100.00
57290;BME280;43523;53.022;-1.178;2022-11-15T01:27:01;99383.99;;;6.15;100.00
57290;BME280;43523;53.022;-1.178;2022-11-15T01:28:03;99381.70;;;6.24;100.00
57290;BME280;43523;53.022;-1.178;2022-11-15T01:29:06;99384.67;;;5.78;100.00
57290;BME280;43523;53.022;-1.178;2022-11-15T01:30:09;99383.47;;;5.73;100.00
57290;BME280;43523;53.022;-1.178;2022-11-15T01:31:14;99379.68;;;5.86;100.00
57290;BME280;43523;53.022;-1.178;2022-11-15T01:32:17;99382.81;;;5.61;100.00
57290;BME280;43523;53.022;-1.178;2022-11-15T01:33:19;99376.36;;;5.49;100.00
57290;BME280;43523;53.022;-1.178;2022-11-15T01:34:22;99376.51;;;5.63;100.00
57290;BME280;43523;53.022;-1.178;2022-11-15T01:35:24;99374.86;;;5.69;100.00
57290;BME280;43523;53.022;-1.178;2022-11-15T01:36:27;99372.87;;;5.76;100.00
57290;BME280;43523;53.022;-1.178;2022-11-15T01:37:30;99370.37;;;6.02;100.00
57290;BME280;43523;53.022;-1.178;2022-11-15T01:38:32;99365.98;;;5.85;100.00
57290;BME280;43523;53.022;-1.178;2022-11-15T01:39:36;99361.04;;;5.81;100.00
57290;BME280;43523;53.022;-1.178;2022-11-15T01:40:38;99362.88;;;5.77;100.00
57290;BME280;43523;53.022;-1.178;2022-11-15T01:41:41;99360.22;;;5.79;100.00
57290;BME280;43523;53.022;-1.178;2022-11-15T01:42:43;99358.19;;;5.91;100.00
57290;BME280;43523;53.022;-1.178;2022-11-15T01:43:48;99358.79;;;5.49;100.00
57290;BME280;43523;53.022;-1.178;2022-11-15T01:44:52;99360.90;;;5.57;100.00
57290;BME280;43523;53.022;-1.178;2022-11-15T01:45:58;99356.98;;;5.35;100.00
57290;BME280;43523;53.022;-1.178;2022-11-15T01:47:05;99357.47;;;5.89;100.00
57290;BME280;43523;53.022;-1.178;2022-11-15T01:48:10;99359.19;;;5.46;100.00
57290;BME280;43523;53.022;-1.178;2022-11-15T01:49:15;99358.36;;;5.75;100.00
57290;BME280;43523;53.022;-1.178;2022-11-15T01:50:23;99358.31;;;5.53;100.00
57290;BME280;43523;53.022;-1.178;2022-11-15T01:51:29;99355.86;;;5.48;100.00
57290;BME280;43523;53.022;-1.178;2022-11-15T01:52:33;99352.96;;;5.70;100.00
57290;BME280;43523;53.022;-1.178;2022-11-15T01:53:39;99352.71;;;5.53;100.00
57290;BME280;43523;53.022;-1.178;2022-11-15T01:54:42;99351.67;;;5.34;100.00
57290;BME280;43523;53.022;-1.178;2022-11-15T01:55:46;99350.27;;;5.55;100.00
57290;BME280;43523;53.022;-1.178;2022-11-15T01:56:52;99348.97;;;5.57;100.00
57290;BME280;43523;53.022;-1.178;2022-11-15T01:57:59;99348.40;;;5.52;100.00
57290;BME280;43523;53.022;-1.178;2022-11-15T01:59:05;99345.81;;;5.36;100.00
57290;BME280;43523;53.022;-1.178;2022-11-15T02:00:11;99344.77;;;5.36;100.00
57290;BME280;43523;53.022;-1.178;2022-11-15T02:01:14;99337.49;;;5.38;100.00
57290;BME280;43523;53.022;-1.178;2022-11-15T02:02:16;99334.99;;;5.58;100.00
57290;BME280;43523;53.022;-1.178;2022-11-15T02:03:19;99333.00;;;5.31;100.00
57290;BME280;43523;53.022;-1.178;2022-11-15T02:04:25;99329.68;;;5.19;100.00
57290;BME280;43523;53.022;-1.178;2022-11-15T02:05:30;99327.33;;;5.23;100.00
57290;BME280;43523;53.022;-1.178;2022-11-15T02:06:35;99323.62;;;4.94;100.00
57290;BME280;43523;53.022;-1.178;2022-11-15T02:07:38;99318.46;;;5.46;100.00
57290;BME280;43523;53.022;-1.178;2022-11-15T02:08:41;99316.23;;;5.00;100.00
57290;BME280;43523;53.022;-1.178;2022-11-15T02:09:45;99318.60;;;5.56;100.00
57290;BME280;43523;53.022;-1.178;2022-11-15T02:10:47;99314.63;;;5.13;100.00
57290;BME280;43523;53.022;-1.178;2022-11-15T02:11:50;99314.60;;;5.31;100.00
57290;BME280;43523;53.022;-1.178;2022-11-15T02:12:54;99311.63;;;5.27;100.00
57290;BME280;43523;53.022;-1.178;2022-11-15T02:13:59;99312.24;;;5.10;100.00
57290;BME280;43523;53.022;-1.178;2022-11-15T02:15:05;99313.13;;;5.46;100.00
57290;BME280;43523;53.022;-1.178;2022-11-15T02:16:18;99311.74;;;5.20;100.00
57290;BME280;43523;53.022;-1.178;2022-11-15T02:17:37;99308.10;;;5.43;100.00
57290;BME280;43523;53.022;-1.178;2022-11-15T02:18:48;99306.89;;;5.51;100.00
57290;BME280;43523;53.022;-1.178;2022-11-15T02:21:20;99308.64;;;5.11;100.00
57290;BME280;43523;53.022;-1.178;2022-11-15T02:22:37;99298.08;;;4.70;100.00
57290;BME280;43523;53.022;-1.178;2022-11-15T02:24:10;99298.01;;;4.95;100.00
57290;BME280;43523;53.022;-1.178;2022-11-15T02:25:35;99290.24;;;5.14;100.00
57290;BME280;43523;53.022;-1.178;2022-11-15T02:27:00;99286.69;;;5.10;100.00
57290;BME280;43523;53.022;-1.178;2022-11-15T02:28:26;99287.53;;;5.46;100.00
57290;BME280;43523;53.022;-1.178;2022-11-15T02:29:48;99284.12;;;5.24;100.00
57290;BME280;43523;53.022;-1.178;2022-11-15T02:31:03;99283.19;;;5.39;100.00
57290;BME280;43523;53.022;-1.178;2022-11-15T02:32:11;99279.41;;;5.44;100.00
57290;BME280;43523;53.022;-1.178;2022-11-15T02:33:30;99277.92;;;5.02;100.00
57290;BME280;43523;53.022;-1.178;2022-11-15T02:34:40;99274.57;;;5.51;100.00
57290;BME280;43523;53.022;-1.178;2022-11-15T02:35:57;99269.86;;;5.29;100.00
57290;BME280;43523;53.022;-1.178;2022-11-15T02:37:07;99265.08;;;5.43;100.00
57290;BME280;43523;53.022;-1.178;2022-11-15T02:38:17;99261.50;;;5.57;100.00
57290;BME280;43523;53.022;-1.178;2022-11-15T02:39:27;99257.54;;;5.67;100.00
57290;BME280;43523;53.022;-1.178;2022-11-15T02:40:37;99251.66;;;5.34;100.00
57290;BME280;43523;53.022;-1.178;2022-11-15T02:41:45;99247.61;;;5.19;100.00
57290;BME280;43523;53.022;-1.178;2022-11-15T02:42:52;99250.40;;;5.57;100.00
57290;BME280;43523;53.022;-1.178;2022-11-15T02:44:01;99247.28;;;5.68;100.00
57290;BME280;43523;53.022;-1.178;2022-11-15T02:45:08;99246.97;;;5.70;100.00
57290;BME280;43523;53.022;-1.178;2022-11-15T02:46:17;99247.57;;;5.62;100.00
57290;BME280;43523;53.022;-1.178;2022-11-15T02:47:20;99244.85;;;5.82;100.00
57290;BME280;43523;53.022;-1.178;2022-11-15T02:48:24;99247.20;;;5.91;100.00
57290;BME280;43523;53.022;-1.178;2022-11-15T02:49:29;99241.56;;;6.03;100.00
57290;BME280;43523;53.022;-1.178;2022-11-15T02:50:34;99236.82;;;5.99;100.00
57290;BME280;43523;53.022;-1.178;2022-11-15T02:51:37;99236.16;;;5.98;100.00
57290;BME280;43523;53.022;-1.178;2022-11-15T02:52:40;99236.35;;;6.14;100.00
57290;BME280;43523;53.022;-1.178;2022-11-15T02:53:42;99233.32;;;5.78;100.00
57290;BME280;43523;53.022;-1.178;2022-11-15T02:54:53;99229.85;;;6.24;100.00
57290;BME280;43523;53.022;-1.178;2022-11-15T02:55:57;99226.89;;;6.14;100.00
57290;BME280;43523;53.022;-1.178;2022-11-15T02:57:02;99222.43;;;6.26;100.00
57290;BME280;43523;53.022;-1.178;2022-11-15T02:58:41;99222.86;;;5.80;100.00
57290;BME280;43523;53.022;-1.178;2022-11-15T03:00:02;99222.91;;;5.83;100.00
57290;BME280;43523;53.022;-1.178;2022-11-15T03:01:12;99221.50;;;5.82;100.00
57290;BME280;43523;53.022;-1.178;2022-11-15T03:02:28;99216.12;;;5.81;100.00
57290;BME280;43523;53.022;-1.178;2022-11-15T03:03:48;99207.44;;;6.20;100.00
57290;BME280;43523;53.022;-1.178;2022-11-15T03:04:56;99202.14;;;5.83;100.00
57290;BME280;43523;53.022;-1.178;2022-11-15T03:06:11;99198.95;;;5.83;100.00
57290;BME280;43523;53.022;-1.178;2022-11-15T03:07:22;99196.21;;;5.99;100.00
57290;BME280;43523;53.022;-1.178;2022-11-15T03:08:32;99188.06;;;5.65;100.00
57290;BME280;43523;53.022;-1.178;2022-11-15T03:09:39;99186.06;;;5.34;100.00
57290;BME280;43523;53.022;-1.178;2022-11-15T03:10:48;99179.85;;;5.32;100.00
57290;BME280;43523;53.022;-1.178;2022-11-15T03:11:59;99177.36;;;4.94;100.00
57290;BME280;43523;53.022;-1.178;2022-11-15T03:13:12;99176.08;;;5.39;100.00
57290;BME280;43523;53.022;-1.178;2022-11-15T03:14:22;99170.28;;;5.66;100.00
57290;BME280;43523;53.022;-1.178;2022-11-15T03:15:29;99169.98;;;5.58;100.00
57290;BME280;43523;53.022;-1.178;2022-11-15T03:16:37;99170.60;;;5.76;100.00
57290;BME280;43523;53.022;-1.178;2022-11-15T03:17:43;99168.91;;;5.62;100.00
57290;BME280;43523;53.022;-1.178;2022-11-15T03:18:54;99165.75;;;5.67;100.00
57290;BME280;43523;53.022;-1.178;2022-11-15T03:20:02;99167.83;;;5.61;100.00
57290;BME280;43523;53.022;-1.178;2022-11-15T03:21:08;99169.78;;;5.29;100.00
57290;BME280;43523;53.022;-1.178;2022-11-15T03:22:16;99168.45;;;5.50;100.00
57290;BME280;43523;53.022;-1.178;2022-11-15T03:23:21;99162.91;;;5.73;100.00
57290;BME280;43523;53.022;-1.178;2022-11-15T03:24:23;99164.86;;;5.55;100.00
57290;BME280;43523;53.022;-1.178;2022-11-15T03:25:28;99162.49;;;5.76;100.00
57290;BME280;43523;53.022;-1.178;2022-11-15T03:26:32;99163.64;;;5.61;100.00
57290;BME280;43523;53.022;-1.178;2022-11-15T03:27:37;99166.22;;;5.45;100.00
57290;BME280;43523;53.022;-1.178;2022-11-15T03:28:44;99164.95;;;4.98;100.00
57290;BME280;43523;53.022;-1.178;2022-11-15T03:29:52;99166.96;;;5.45;100.00
57290;BME280;43523;53.022;-1.178;2022-11-15T03:30:59;99167.05;;;5.38;100.00
57290;BME280;43523;53.022;-1.178;2022-11-15T03:32:06;99169.62;;;5.51;100.00
57290;BME280;43523;53.022;-1.178;2022-11-15T03:33:11;99167.90;;;5.36;100.00
57290;BME280;43523;53.022;-1.178;2022-11-15T03:34:19;99167.84;;;5.50;100.00
57290;BME280;43523;53.022;-1.178;2022-11-15T03:35:25;99165.41;;;5.56;100.00
57290;BME280;43523;53.022;-1.178;2022-11-15T03:36:30;99160.41;;;5.89;100.00
57290;BME280;43523;53.022;-1.178;2022-11-15T03:37:37;99158.06;;;5.38;100.00
57290;BME280;43523;53.022;-1.178;2022-11-15T03:38:41;99154.21;;;4.60;100.00
57290;BME280;43523;53.022;-1.178;2022-11-15T03:39:45;99153.55;;;5.17;100.00
57290;BME280;43523;53.022;-1.178;2022-11-15T03:40:53;99149.96;;;4.87;100.00
57290;BME280;43523;53.022;-1.178;2022-11-15T03:42:04;99150.25;;;5.15;100.00
57290;BME280;43523;53.022;-1.178;2022-11-15T03:43:19;99146.97;;;5.43;100.00
57290;BME280;43523;53.022;-1.178;2022-11-15T03:44:31;99144.97;;;5.60;100.00
57290;BME280;43523;53.022;-1.178;2022-11-15T03:45:43;99144.58;;;5.75;100.00
57290;BME280;43523;53.022;-1.178;2022-11-15T03:46:50;99146.90;;;5.39;100.00
57290;BME280;43523;53.022;-1.178;2022-11-15T03:48:01;99141.77;;;5.69;100.00
57290;BME280;43523;53.022;-1.178;2022-11-15T03:49:09;99141.98;;;5.32;100.00
57290;BME280;43523;53.022;-1.178;2022-11-15T03:50:16;99139.76;;;5.63;100.00
57290;BME280;43523;53.022;-1.178;2022-11-15T03:51:19;99136.98;;;5.55;100.00
57290;BME280;43523;53.022;-1.178;2022-11-15T03:52:22;99141.47;;;5.44;100.00
57290;BME280;43523;53.022;-1.178;2022-11-15T03:53:24;99135.73;;;5.87;100.00
57290;BME280;43523;53.022;-1.178;2022-11-15T03:54:27;99135.55;;;5.82;100.00
57290;BME280;43523;53.022;-1.178;2022-11-15T03:55:32;99133.94;;;5.59;100.00
57290;BME280;43523;53.022;-1.178;2022-11-15T03:56:34;99134.29;;;5.63;100.00
57290;BME280;43523;53.022;-1.178;2022-11-15T03:57:37;99133.14;;;6.01;100.00
57290;BME280;43523;53.022;-1.178;2022-11-15T03:58:39;99131.08;;;5.49;100.00
57290;BME280;43523;53.022;-1.178;2022-11-15T03:59:41;99130.11;;;5.72;100.00
57290;BME280;43523;53.022;-1.178;2022-11-15T04:00:44;99128.03;;;5.87;100.00
57290;BME280;43523;53.022;-1.178;2022-11-15T04:01:46;99124.10;;;5.84;100.00
57290;BME280;43523;53.022;-1.178;2022-11-15T04:02:48;99122.24;;;5.53;100.00
57290;BME280;43523;53.022;-1.178;2022-11-15T04:03:51;99124.10;;;5.81;100.00
57290;BME280;43523;53.022;-1.178;2022-11-15T04:04:53;99118.49;;;5.74;100.00
57290;BME280;43523;53.022;-1.178;2022-11-15T04:05:56;99117.07;;;5.70;100.00
57290;BME280;43523;53.022;-1.178;2022-11-15T04:06:58;99118.48;;;5.77;100.00
57290;BME280;43523;53.022;-1.178;2022-11-15T04:08:01;99119.95;;;5.67;100.00
57290;BME280;43523;53.022;-1.178;2022-11-15T04:09:04;99121.05;;;5.58;100.00
57290;BME280;43523;53.022;-1.178;2022-11-15T04:10:08;99125.23;;;5.19;100.00
57290;BME280;43523;53.022;-1.178;2022-11-15T04:11:10;99121.62;;;5.95;100.00
57290;BME280;43523;53.022;-1.178;2022-11-15T04:12:13;99124.05;;;5.26;100.00
57290;BME280;43523;53.022;-1.178;2022-11-15T04:13:16;99124.08;;;5.27;100.00
57290;BME280;43523;53.022;-1.178;2022-11-15T04:14:18;99123.76;;;5.03;100.00
57290;BME280;43523;53.022;-1.178;2022-11-15T04:15:23;99119.60;;;5.06;100.00
57290;BME280;43523;53.022;-1.178;2022-11-15T04:16:26;99126.02;;;5.59;100.00
57290;BME280;43523;53.022;-1.178;2022-11-15T04:17:28;99123.86;;;5.37;100.00
57290;BME280;43523;53.022;-1.178;2022-11-15T04:18:30;99117.94;;;5.49;100.00
57290;BME280;43523;53.022;-1.178;2022-11-15T04:19:33;99113.40;;;5.28;100.00
57290;BME280;43523;53.022;-1.178;2022-11-15T04:20:36;99109.15;;;5.58;100.00
57290;BME280;43523;53.022;-1.178;2022-11-15T04:21:38;99106.70;;;5.75;100.00
57290;BME280;43523;53.022;-1.178;2022-11-15T04:22:40;99104.28;;;6.10;100.00
57290;BME280;43523;53.022;-1.178;2022-11-15T04:23:43;99108.10;;;5.63;100.00
57290;BME280;43523;53.022;-1.178;2022-11-15T04:24:47;99105.95;;;5.02;100.00
57290;BME280;43523;53.022;-1.178;2022-11-15T04:25:54;99105.04;;;4.95;100.00
57290;BME280;43523;53.022;-1.178;2022-11-15T04:26:57;99101.82;;;5.48;100.00
57290;BME280;43523;53.022;-1.178;2022-11-15T04:27:59;99102.03;;;5.54;100.00
57290;BME280;43523;53.022;-1.178;2022-11-15T04:29:02;99097.61;;;5.83;100.00
57290;BME280;43523;53.022;-1.178;2022-11-15T04:30:06;99097.03;;;5.61;100.00
57290;BME280;43523;53.022;-1.178;2022-11-15T04:31:08;99095.25;;;6.01;100.00
57290;BME280;43523;53.022;-1.178;2022-11-15T04:32:11;99091.48;;;5.82;100.00
57290;BME280;43523;53.022;-1.178;2022-11-15T04:33:14;99087.10;;;5.98;100.00
57290;BME280;43523;53.022;-1.178;2022-11-15T04:34:16;99083.13;;;6.13;100.00
57290;BME280;43523;53.022;-1.178;2022-11-15T04:35:18;99084.50;;;5.72;100.00
57290;BME280;43523;53.022;-1.178;2022-11-15T04:36:21;99082.95;;;5.86;100.00
57290;BME280;43523;53.022;-1.178;2022-11-15T04:37:24;99079.23;;;5.31;100.00
57290;BME280;43523;53.022;-1.178;2022-11-15T04:38:26;99078.25;;;5.37;100.00
57290;BME280;43523;53.022;-1.178;2022-11-15T04:39:29;99077.16;;;6.15;100.00
57290;BME280;43523;53.022;-1.178;2022-11-15T04:40:37;99071.64;;;6.07;100.00
57290;BME280;43523;53.022;-1.178;2022-11-15T04:41:39;99074.70;;;5.47;100.00
57290;BME280;43523;53.022;-1.178;2022-11-15T04:42:42;99073.10;;;5.64;100.00
57290;BME280;43523;53.022;-1.178;2022-11-15T04:43:44;99070.81;;;5.30;100.00
57290;BME280;43523;53.022;-1.178;2022-11-15T04:44:47;99075.02;;;5.92;100.00
57290;BME280;43523;53.022;-1.178;2022-11-15T04:45:49;99078.50;;;5.71;100.00
57290;BME280;43523;53.022;-1.178;2022-11-15T04:46:52;99080.72;;;5.62;100.00
57290;BME280;43523;53.022;-1.178;2022-11-15T04:47:54;99084.29;;;5.44;100.00
57290;BME280;43523;53.022;-1.178;2022-11-15T04:48:56;99087.04;;;5.43;100.00
57290;BME280;43523;53.022;-1.178;2022-11-15T04:49:59;99084.93;;;5.09;100.00
57290;BME280;43523;53.022;-1.178;2022-11-15T04:51:01;99084.90;;;5.73;100.00
57290;BME280;43523;53.022;-1.178;2022-11-15T04:52:04;99081.00;;;5.81;100.00
57290;BME280;43523;53.022;-1.178;2022-11-15T04:53:06;99074.68;;;6.05;100.00
57290;BME280;43523;53.022;-1.178;2022-11-15T04:54:09;99070.65;;;5.75;100.00
57290;BME280;43523;53.022;-1.178;2022-11-15T04:55:11;99067.60;;;5.76;100.00
57290;BME280;43523;53.022;-1.178;2022-11-15T04:56:14;99064.94;;;5.85;100.00
57290;BME280;43523;53.022;-1.178;2022-11-15T04:57:16;99060.46;;;5.68;100.00
57290;BME280;43523;53.022;-1.178;2022-11-15T04:58:18;99056.73;;;5.67;100.00
57290;BME280;43523;53.022;-1.178;2022-11-15T04:59:20;99052.74;;;5.94;100.00
57290;BME280;43523;53.022;-1.178;2022-11-15T05:00:23;99054.24;;;5.50;100.00
57290;BME280;43523;53.022;-1.178;2022-11-15T05:01:25;99048.64;;;5.25;100.00
57290;BME280;43523;53.022;-1.178;2022-11-15T05:02:28;99050.06;;;5.37;100.00
57290;BME280;43523;53.022;-1.178;2022-11-15T05:03:30;99045.27;;;5.16;100.00
57290;BME280;43523;53.022;-1.178;2022-11-15T05:04:33;99042.26;;;5.21;100.00
57290;BME280;43523;53.022;-1.178;2022-11-15T05:05:36;99034.63;;;5.77;100.00
57290;BME280;43523;53.022;-1.178;2022-11-15T05:06:38;99033.56;;;5.44;100.00
57290;BME280;43523;53.022;-1.178;2022-11-15T05:07:41;99032.02;;;5.09;100.00
57290;BME280;43523;53.022;-1.178;2022-11-15T05:08:43;99030.06;;;5.60;100.00
57290;BME280;43523;53.022;-1.178;2022-11-15T05:09:45;99024.48;;;6.06;100.00
57290;BME280;43523;53.022;-1.178;2022-11-15T05:10:48;99024.06;;;5.52;100.00
57290;BME280;43523;53.022;-1.178;2022-11-15T05:11:50;99018.76;;;5.85;100.00
57290;BME280;43523;53.022;-1.178;2022-11-15T05:12:52;99024.31;;;5.36;100.00
57290;BME280;43523;53.022;-1.178;2022-11-15T05:13:55;99021.65;;;5.11;100.00
57290;BME280;43523;53.022;-1.178;2022-11-15T05:14:57;99016.37;;;5.31;100.00
57290;BME280;43523;53.022;-1.178;2022-11-15T05:16:00;99008.45;;;5.61;100.00
57290;BME280;43523;53.022;-1.178;2022-11-15T05:17:02;99010.85;;;4.86;100.00
57290;BME280;43523;53.022;-1.178;2022-11-15T05:18:05;99007.45;;;4.94;100.00
57290;BME280;43523;53.022;-1.178;2022-11-15T05:19:07;99000.46;;;5.36;100.00
57290;BME280;43523;53.022;-1.178;2022-11-15T05:20:10;99000.42;;;5.12;100.00
57290;BME280;43523;53.022;-1.178;2022-11-15T05:21:14;98996.27;;;5.10;100.00
57290;BME280;43523;53.022;-1.178;2022-11-15T05:22:17;98991.71;;;5.01;100.00
57290;BME280;43523;53.022;-1.178;2022-11-15T05:23:19;98990.00;;;4.93;100.00
57290;BME280;43523;53.022;-1.178;2022-11-15T05:24:22;98987.48;;;5.07;100.00
57290;BME280;43523;53.022;-1.178;2022-11-15T05:25:24;98986.04;;;5.50;100.00
57290;BME280;43523;53.022;-1.178;2022-11-15T05:26:28;98980.15;;;5.35;100.00
57290;BME280;43523;53.022;-1.178;2022-11-15T05:27:31;98979.70;;;5.34;100.00
57290;BME280;43523;53.022;-1.178;2022-11-15T05:28:33;98977.26;;;5.50;100.00
57290;BME280;43523;53.022;-1.178;2022-11-15T05:29:37;98982.22;;;5.17;100.00
57290;BME280;43523;53.022;-1.178;2022-11-15T05:30:38;98982.99;;;5.04;100.00
57290;BME280;43523;53.022;-1.178;2022-11-15T05:31:41;98977.12;;;5.45;100.00
57290;BME280;43523;53.022;-1.178;2022-11-15T05:32:44;98972.65;;;5.75;100.00
57290;BME280;43523;53.022;-1.178;2022-11-15T05:33:48;98967.30;;;5.35;100.00
57290;BME280;43523;53.022;-1.178;2022-11-15T05:34:50;98966.50;;;4.96;100.00
57290;BME280;43523;53.022;-1.178;2022-11-15T05:35:58;98964.14;;;5.38;100.00
57290;BME280;43523;53.022;-1.178;2022-11-15T05:37:03;98965.25;;;5.76;100.00
57290;BME280;43523;53.022;-1.178;2022-11-15T05:38:06;98960.87;;;5.81;100.00
57290;BME280;43523;53.022;-1.178;2022-11-15T05:39:09;98964.38;;;5.06;100.00
57290;BME280;43523;53.022;-1.178;2022-11-15T05:40:12;98962.32;;;5.32;100.00